createdAt,value
2022-10-12T00:00:31.231Z,10.69
2022-10-12T00:01:35.639Z,10.68
2022-10-12T00:02:39.887Z,10.69
2022-10-12T00:03:44.096Z,10.69
2022-10-12T00:04:48.435Z,10.69
2022-10-12T00:05:52.752Z,10.71
2022-10-12T00:06:57.070Z,10.72
2022-10-12T00:08:01.466Z,10.72
2022-10-12T00:09:05.720Z,10.74
2022-10-12T00:10:10.056Z,10.74
2022-10-12T00:11:14.244Z,10.75
2022-10-12T00:12:18.581Z,10.74
2022-10-12T00:13:22.904Z,10.74
2022-10-12T00:14:27.202Z,10.74
2022-10-12T00:15:31.500Z,10.75
2022-10-12T00:16:35.720Z,10.74
2022-10-12T00:17:40.431Z,10.74
2022-10-12T00:18:44.371Z,10.74
2022-10-12T00:19:48.638Z,10.73
2022-10-12T00:20:52.951Z,10.71
2022-10-12T00:21:57.152Z,10.69
2022-10-12T00:23:01.478Z,10.70
2022-10-12T00:24:05.682Z,10.71
2022-10-12T00:25:09.994Z,10.72
2022-10-12T00:26:14.287Z,10.72
2022-10-12T00:27:18.676Z,10.72
2022-10-12T00:28:22.893Z,10.73
2022-10-12T00:29:27.189Z,10.73
2022-10-12T00:30:31.466Z,10.74
2022-10-12T00:31:35.690Z,10.75
2022-10-12T00:32:40.053Z,10.76
2022-10-12T00:33:44.314Z,10.76
2022-10-12T00:34:48.669Z,10.78
2022-10-12T00:35:52.945Z,10.79
2022-10-12T00:36:57.244Z,10.80
2022-10-12T00:38:01.547Z,10.80
2022-10-12T00:39:05.828Z,10.81
2022-10-12T00:40:09.927Z,10.84
2022-10-12T00:41:14.308Z,10.84
2022-10-12T00:42:18.707Z,10.85
2022-10-12T00:43:22.983Z,10.86
2022-10-12T00:44:27.165Z,10.87
2022-10-12T00:45:31.512Z,10.86
2022-10-12T00:46:35.788Z,10.85
2022-10-12T00:47:40.439Z,10.86
2022-10-12T00:48:44.344Z,10.87
2022-10-12T00:49:48.760Z,10.85
2022-10-12T00:50:53.056Z,10.84
2022-10-12T00:51:57.258Z,10.84
2022-10-12T00:53:01.547Z,10.84
2022-10-12T00:54:05.875Z,10.81
2022-10-12T00:55:10.082Z,10.77
2022-10-12T00:56:14.542Z,10.71
2022-10-12T00:57:18.804Z,10.66
2022-10-12T00:58:23.061Z,10.65
2022-10-12T00:59:27.458Z,10.63
2022-10-12T01:00:31.598Z,10.61
2022-10-12T01:01:35.882Z,10.59
2022-10-12T01:02:40.100Z,10.58
2022-10-12T01:03:44.455Z,10.58
2022-10-12T01:04:48.739Z,10.57
2022-10-12T01:05:53.055Z,10.57
2022-10-12T01:06:57.351Z,10.56
2022-10-12T01:08:01.577Z,10.55
2022-10-12T01:09:05.917Z,10.51
2022-10-12T01:10:10.147Z,10.43
2022-10-12T01:11:14.401Z,10.28
2022-10-12T01:12:18.711Z,10.16
2022-10-12T01:13:23.010Z,10.06
2022-10-12T01:14:27.301Z,9.97
2022-10-12T01:15:31.669Z,9.91
2022-10-12T01:16:35.864Z,9.87
2022-10-12T01:17:40.362Z,9.84
2022-10-12T01:18:44.330Z,9.83
2022-10-12T01:19:48.597Z,9.85
2022-10-12T01:20:52.913Z,9.87
2022-10-12T01:21:57.194Z,9.88
2022-10-12T01:23:01.441Z,9.90
2022-10-12T01:24:05.661Z,9.91
2022-10-12T01:25:09.989Z,9.91
2022-10-12T01:26:14.248Z,9.92
2022-10-12T01:27:18.531Z,9.90
2022-10-12T01:28:22.838Z,9.90
2022-10-12T01:29:27.081Z,9.88
2022-10-12T01:30:31.225Z,9.89
2022-10-12T01:31:35.605Z,9.88
2022-10-12T01:32:39.877Z,9.89
2022-10-12T01:33:44.189Z,9.88
2022-10-12T01:34:48.392Z,9.88
2022-10-12T01:35:52.706Z,9.86
2022-10-12T01:36:56.946Z,9.83
2022-10-12T01:38:01.250Z,9.84
2022-10-12T01:39:05.663Z,9.84
2022-10-12T01:40:09.875Z,9.85
2022-10-12T01:41:14.164Z,9.83
2022-10-12T01:42:18.458Z,9.81
2022-10-12T01:43:22.737Z,9.80
2022-10-12T01:44:26.951Z,9.82
2022-10-12T01:45:31.295Z,9.82
2022-10-12T01:46:35.566Z,9.81
2022-10-12T01:47:40.242Z,9.79
2022-10-12T01:48:44.046Z,9.77
2022-10-12T01:49:48.276Z,9.74
2022-10-12T01:50:52.622Z,9.73
2022-10-12T01:51:56.861Z,9.73
2022-10-12T01:53:01.171Z,9.75
2022-10-12T01:54:05.447Z,9.75
2022-10-12T01:55:09.760Z,9.76
2022-10-12T01:56:14.019Z,9.76
2022-10-12T01:57:18.231Z,9.74
2022-10-12T01:58:22.432Z,9.73
2022-10-12T01:59:26.879Z,9.71
2022-10-12T02:00:31.200Z,9.71
2022-10-12T02:01:35.504Z,9.71
2022-10-12T02:02:39.697Z,9.70
2022-10-12T02:03:43.860Z,9.70
2022-10-12T02:04:48.241Z,9.71
2022-10-12T02:05:52.535Z,9.71
2022-10-12T02:06:56.808Z,9.71
2022-10-12T02:08:01.110Z,9.71
2022-10-12T02:09:05.389Z,9.72
2022-10-12T02:10:09.640Z,9.69
2022-10-12T02:11:14.012Z,9.64
2022-10-12T02:12:18.227Z,9.59
2022-10-12T02:13:22.511Z,9.55
2022-10-12T02:14:26.800Z,9.53
2022-10-12T02:15:31.083Z,9.52
2022-10-12T02:16:35.366Z,9.50
2022-10-12T02:17:39.793Z,9.50
2022-10-12T02:18:43.839Z,9.49
2022-10-12T02:19:48.158Z,9.51
2022-10-12T02:20:52.341Z,9.51
2022-10-12T02:21:56.679Z,9.50
2022-10-12T02:23:00.899Z,9.50
2022-10-12T02:24:05.203Z,9.51
2022-10-12T02:25:09.477Z,9.53
2022-10-12T02:26:13.758Z,9.55
2022-10-12T02:27:18.057Z,9.58
2022-10-12T02:28:22.296Z,9.57
2022-10-12T02:29:26.543Z,9.53
2022-10-12T02:30:30.812Z,9.51
2022-10-12T02:31:34.943Z,9.49
2022-10-12T02:32:39.275Z,9.47
2022-10-12T02:33:43.553Z,9.47
2022-10-12T02:34:47.823Z,9.47
2022-10-12T02:35:52.071Z,9.47
2022-10-12T02:36:56.337Z,9.47
2022-10-12T02:38:00.622Z,9.47
2022-10-12T02:39:10.845Z,9.45
2022-10-12T02:40:13.723Z,9.44
2022-10-12T02:41:17.966Z,9.43
2022-10-12T02:42:22.241Z,9.41
2022-10-12T02:43:26.431Z,9.38
2022-10-12T02:44:30.735Z,9.39
2022-10-12T02:45:41.042Z,9.39
2022-10-12T02:46:43.900Z,9.38
2022-10-12T02:47:48.060Z,9.35
2022-10-12T02:48:52.295Z,9.24
2022-10-12T02:49:56.597Z,9.10
2022-10-12T02:51:00.888Z,9.00
2022-10-12T02:52:05.026Z,8.93
2022-10-12T02:53:09.330Z,8.91
2022-10-12T02:54:13.601Z,8.91
2022-10-12T02:55:17.877Z,8.94
2022-10-12T02:56:21.966Z,8.98
2022-10-12T02:57:26.410Z,9.02
2022-10-12T02:58:30.659Z,9.01
2022-10-12T02:59:34.950Z,8.95
2022-10-12T03:00:39.105Z,8.89
2022-10-12T03:01:43.473Z,8.84
2022-10-12T03:02:47.668Z,8.80
2022-10-12T03:03:51.786Z,8.80
2022-10-12T03:04:56.063Z,8.81
2022-10-12T03:06:00.404Z,8.81
2022-10-12T03:07:04.576Z,8.81
2022-10-12T03:08:08.890Z,8.82
2022-10-12T03:09:13.011Z,8.81
2022-10-12T03:10:17.361Z,8.80
2022-10-12T03:11:21.625Z,8.80
2022-10-12T03:12:25.705Z,8.80
2022-10-12T03:13:30.086Z,8.78
2022-10-12T03:14:34.143Z,8.77
2022-10-12T03:15:38.509Z,8.77
2022-10-12T03:16:42.599Z,8.78
2022-10-12T03:17:46.921Z,8.81
2022-10-12T03:18:51.211Z,8.84
2022-10-12T03:19:55.446Z,8.86
2022-10-12T03:20:59.683Z,8.87
2022-10-12T03:22:03.967Z,8.87
2022-10-12T03:23:08.202Z,8.87
2022-10-12T03:24:12.457Z,8.87
2022-10-12T03:25:16.641Z,8.87
2022-10-12T03:26:20.856Z,8.86
2022-10-12T03:27:25.292Z,8.86
2022-10-12T03:28:29.567Z,8.86
2022-10-12T03:29:33.907Z,8.87
2022-10-12T03:30:38.007Z,8.86
2022-10-12T03:31:42.313Z,8.84
2022-10-12T03:32:46.634Z,8.85
2022-10-12T03:33:50.881Z,8.85
2022-10-12T03:34:55.153Z,8.82
2022-10-12T03:35:59.322Z,8.76
2022-10-12T03:37:03.628Z,8.66
2022-10-12T03:38:07.803Z,8.59
2022-10-12T03:39:11.954Z,8.55
2022-10-12T03:40:16.320Z,8.51
2022-10-12T03:41:20.643Z,8.50
2022-10-12T03:42:24.897Z,8.51
2022-10-12T03:43:29.089Z,8.53
2022-10-12T03:44:33.376Z,8.55
2022-10-12T03:45:37.692Z,8.58
2022-10-12T03:46:41.858Z,8.64
2022-10-12T03:47:46.032Z,8.69
2022-10-12T03:48:50.199Z,8.65
2022-10-12T03:49:54.576Z,8.63
2022-10-12T03:50:58.776Z,8.60
2022-10-12T03:52:03.028Z,8.58
2022-10-12T03:53:07.360Z,8.56
2022-10-12T03:54:11.683Z,8.56
2022-10-12T03:55:15.938Z,8.54
2022-10-12T03:56:20.057Z,8.54
2022-10-12T03:57:24.425Z,8.51
2022-10-12T03:58:28.588Z,8.48
2022-10-12T03:59:32.897Z,8.46
2022-10-12T04:00:37.159Z,8.45
2022-10-12T04:01:41.539Z,8.44
2022-10-12T04:02:45.619Z,8.46
2022-10-12T04:03:49.806Z,8.47
2022-10-12T04:04:54.248Z,8.49
2022-10-12T04:05:58.372Z,8.51
2022-10-12T04:07:02.604Z,8.52
2022-10-12T04:08:06.814Z,8.52
2022-10-12T04:09:11.042Z,8.53
2022-10-12T04:10:15.227Z,8.53
2022-10-12T04:11:19.415Z,8.54
2022-10-12T04:12:23.849Z,8.52
2022-10-12T04:13:28.080Z,8.52
2022-10-12T04:14:32.358Z,8.52
2022-10-12T04:15:36.533Z,8.52
2022-10-12T04:16:40.773Z,8.53
2022-10-12T04:17:45.131Z,8.54
2022-10-12T04:18:49.294Z,8.55
2022-10-12T04:19:53.511Z,8.56
2022-10-12T04:20:57.814Z,8.57
2022-10-12T04:22:01.892Z,8.61
2022-10-12T04:23:06.295Z,8.64
2022-10-12T04:24:10.486Z,8.69
2022-10-12T04:25:14.820Z,8.71
2022-10-12T04:26:18.908Z,8.75
2022-10-12T04:27:23.176Z,8.70
2022-10-12T04:28:27.562Z,8.64
2022-10-12T04:29:31.713Z,8.58
2022-10-12T04:30:35.941Z,8.53
2022-10-12T04:31:40.171Z,8.48
2022-10-12T04:32:44.420Z,8.43
2022-10-12T04:33:48.726Z,8.35
2022-10-12T04:34:52.869Z,8.28
2022-10-12T04:35:57.170Z,8.22
2022-10-12T04:37:01.404Z,8.13
2022-10-12T04:38:05.716Z,8.09
2022-10-12T04:39:09.997Z,8.05
2022-10-12T04:40:14.249Z,8.03
2022-10-12T04:41:18.484Z,8.00
2022-10-12T04:42:22.596Z,8.01
2022-10-12T04:43:26.935Z,8.01
2022-10-12T04:44:32.346Z,8.02
2022-10-12T04:45:35.327Z,8.05
2022-10-12T04:46:39.442Z,8.05
2022-10-12T04:47:43.807Z,8.09
2022-10-12T04:48:47.968Z,8.09
2022-10-12T04:49:52.294Z,8.08
2022-10-12T04:50:56.457Z,8.09
2022-10-12T04:52:00.727Z,8.10
2022-10-12T04:53:04.993Z,8.13
2022-10-12T04:54:09.239Z,8.15
2022-10-12T04:55:13.613Z,8.18
2022-10-12T04:56:17.836Z,8.21
2022-10-12T04:57:21.994Z,8.24
2022-10-12T04:58:26.260Z,8.27
2022-10-12T04:59:30.562Z,8.29
2022-10-12T05:00:34.817Z,8.31
2022-10-12T05:01:39.364Z,8.34
2022-10-12T05:02:43.375Z,8.37
2022-10-12T05:03:47.467Z,8.40
2022-10-12T05:04:51.741Z,8.43
2022-10-12T05:05:55.878Z,8.47
2022-10-12T05:07:00.221Z,8.48
2022-10-12T05:08:07.495Z,8.51
2022-10-12T05:09:14.456Z,8.53
2022-10-12T05:10:14.909Z,8.56
2022-10-12T05:11:19.090Z,8.58
2022-10-12T05:12:23.346Z,8.60
2022-10-12T05:13:27.815Z,8.63
2022-10-12T05:14:35.057Z,8.65
2022-10-12T05:15:36.260Z,8.67
2022-10-12T05:16:41.365Z,8.71
2022-10-12T05:17:45.332Z,8.73
2022-10-12T05:18:49.419Z,8.76
2022-10-12T05:19:53.921Z,8.77
2022-10-12T05:20:58.242Z,8.76
2022-10-12T05:22:02.438Z,8.74
2022-10-12T05:23:06.622Z,8.71
2022-10-12T05:24:11.041Z,8.66
2022-10-12T05:25:15.322Z,8.62
2022-10-12T05:26:19.497Z,8.59
2022-10-12T05:27:23.713Z,8.58
2022-10-12T05:28:27.885Z,8.58
2022-10-12T05:29:32.341Z,8.60
2022-10-12T05:30:36.544Z,8.62
2022-10-12T05:31:40.662Z,8.65
2022-10-12T05:32:44.996Z,8.68
2022-10-12T05:33:49.270Z,8.71
2022-10-12T05:34:53.453Z,8.73
2022-10-12T05:35:57.851Z,8.74
2022-10-12T05:37:02.124Z,8.76
2022-10-12T05:38:06.371Z,8.77
2022-10-12T05:39:10.413Z,8.80
2022-10-12T05:40:14.797Z,8.82
2022-10-12T05:41:19.075Z,8.83
2022-10-12T05:42:23.238Z,8.84
2022-10-12T05:43:27.463Z,8.85
2022-10-12T05:44:31.683Z,8.86
2022-10-12T05:45:36.029Z,8.88
2022-10-12T05:46:40.227Z,8.90
2022-10-12T05:47:44.579Z,8.92
2022-10-12T05:48:48.689Z,8.94
2022-10-12T05:49:53.137Z,8.95
2022-10-12T05:50:57.165Z,8.96
2022-10-12T05:52:01.537Z,8.96
2022-10-12T05:53:05.862Z,8.97
2022-10-12T05:54:10.088Z,8.97
2022-10-12T05:55:14.378Z,8.98
2022-10-12T05:56:18.668Z,9.00
2022-10-12T05:57:22.743Z,9.02
2022-10-12T05:58:27.097Z,9.03
2022-10-12T05:59:31.331Z,9.05
2022-10-12T06:00:35.588Z,9.07
2022-10-12T06:01:39.907Z,9.10
2022-10-12T06:02:44.130Z,9.12
2022-10-12T06:03:48.295Z,9.14
2022-10-12T06:04:52.665Z,9.17
2022-10-12T06:05:56.971Z,9.21
2022-10-12T06:07:01.250Z,9.24
2022-10-12T06:08:05.429Z,9.27
2022-10-12T06:09:09.797Z,9.31
2022-10-12T06:10:13.951Z,9.34
2022-10-12T06:11:18.110Z,9.37
2022-10-12T06:12:22.523Z,9.39
2022-10-12T06:13:26.556Z,9.41
2022-10-12T06:14:30.923Z,9.44
2022-10-12T06:15:35.154Z,9.43
2022-10-12T06:16:39.480Z,9.42
2022-10-12T06:17:43.735Z,9.41
2022-10-12T06:18:48.024Z,9.41
2022-10-12T06:19:52.401Z,9.41
2022-10-12T06:22:00.660Z,9.41
2022-10-12T06:23:05.039Z,9.41
2022-10-12T06:24:09.411Z,9.42
2022-10-12T06:25:13.554Z,9.43
2022-10-12T06:26:17.764Z,9.44
2022-10-12T06:27:22.166Z,9.45
2022-10-12T06:28:26.350Z,9.46
2022-10-12T06:29:30.704Z,9.46
2022-10-12T06:30:34.931Z,9.47
2022-10-12T06:31:39.332Z,9.47
2022-10-12T06:32:43.652Z,9.45
2022-10-12T06:33:47.877Z,9.45
2022-10-12T06:34:52.130Z,9.45
2022-10-12T06:35:56.432Z,9.46
2022-10-12T06:37:02.007Z,9.47
2022-10-12T06:38:04.934Z,9.49
2022-10-12T06:39:09.229Z,9.51
2022-10-12T06:40:13.538Z,9.50
2022-10-12T06:41:17.938Z,9.48
2022-10-12T06:42:22.229Z,9.47
2022-10-12T06:43:26.505Z,9.45
2022-10-12T06:44:30.748Z,9.45
2022-10-12T06:45:35.008Z,9.47
2022-10-12T06:46:39.340Z,9.48
2022-10-12T06:47:43.573Z,9.49
2022-10-12T06:48:47.798Z,9.50
2022-10-12T06:49:51.874Z,9.53
2022-10-12T06:50:56.281Z,9.54
2022-10-12T06:52:00.464Z,9.56
2022-10-12T06:53:04.886Z,9.57
2022-10-12T06:54:09.020Z,9.58
2022-10-12T06:55:13.412Z,9.59
2022-10-12T06:56:17.746Z,9.59
2022-10-12T06:57:22.011Z,9.59
2022-10-12T06:58:26.371Z,9.57
2022-10-12T06:59:30.566Z,9.57
2022-10-12T07:00:34.649Z,9.57
2022-10-12T07:01:39.115Z,9.58
2022-10-12T07:02:43.315Z,9.60
2022-10-12T07:03:47.701Z,9.62
2022-10-12T07:04:52.014Z,9.63
2022-10-12T07:05:56.257Z,9.65
2022-10-12T07:07:00.445Z,9.67
2022-10-12T07:08:04.797Z,9.68
2022-10-12T07:09:09.086Z,9.70
2022-10-12T07:10:13.169Z,9.72
2022-10-12T07:11:17.655Z,9.74
2022-10-12T07:12:21.709Z,9.75
2022-10-12T07:13:26.006Z,9.77
2022-10-12T07:14:30.308Z,9.78
2022-10-12T07:15:34.464Z,9.79
2022-10-12T07:16:38.583Z,9.80
2022-10-12T07:17:42.807Z,9.81
2022-10-12T07:18:47.126Z,9.82
2022-10-12T07:19:51.434Z,9.82
2022-10-12T07:20:55.729Z,9.81
2022-10-12T07:21:59.987Z,9.82
2022-10-12T07:23:04.277Z,9.83
2022-10-12T07:24:08.452Z,9.85
2022-10-12T07:25:12.837Z,9.87
2022-10-12T07:26:17.125Z,9.87
2022-10-12T07:27:21.343Z,9.87
2022-10-12T07:28:25.569Z,9.88
2022-10-12T07:29:29.877Z,9.88
2022-10-12T07:30:34.166Z,9.89
2022-10-12T07:31:38.486Z,9.90
2022-10-12T07:32:42.795Z,9.92
2022-10-12T07:33:46.976Z,9.95
2022-10-12T07:34:51.398Z,9.99
2022-10-12T07:36:14.210Z,10.03
2022-10-12T07:37:00.099Z,10.07
2022-10-12T07:38:04.100Z,10.12
2022-10-12T07:39:08.514Z,10.16
2022-10-12T07:40:12.621Z,10.20
2022-10-12T07:41:16.954Z,10.24
2022-10-12T07:42:21.179Z,10.28
2022-10-12T07:43:25.536Z,10.31
2022-10-12T07:44:29.901Z,10.34
2022-10-12T07:45:34.138Z,10.38
2022-10-12T07:46:38.432Z,10.42
2022-10-12T07:47:42.722Z,10.44
2022-10-12T07:48:50.198Z,10.47
2022-10-12T07:49:51.416Z,10.51
2022-10-12T07:50:55.693Z,10.53
2022-10-12T07:51:59.990Z,10.57
2022-10-12T07:53:04.299Z,10.60
2022-10-12T07:54:08.684Z,10.63
2022-10-12T07:55:12.755Z,10.66
2022-10-12T07:56:16.981Z,10.69
2022-10-12T07:57:21.378Z,10.72
2022-10-12T07:58:25.762Z,10.75
2022-10-12T07:59:29.999Z,10.78
2022-10-12T08:00:34.379Z,10.81
2022-10-12T08:01:38.892Z,10.85
2022-10-12T08:02:43.090Z,10.87
2022-10-12T08:03:47.458Z,10.89
2022-10-12T08:04:51.813Z,10.91
2022-10-12T08:05:56.054Z,10.93
2022-10-12T08:07:00.405Z,10.96
2022-10-12T08:08:04.788Z,10.99
2022-10-12T08:09:09.075Z,11.03
2022-10-12T08:10:13.367Z,11.06
2022-10-12T08:11:17.689Z,11.07
2022-10-12T08:12:21.962Z,11.09
2022-10-12T08:13:26.301Z,11.12
2022-10-12T08:14:30.590Z,11.15
2022-10-12T08:15:34.938Z,11.18
2022-10-12T08:16:39.239Z,11.21
2022-10-12T08:17:43.615Z,11.25
2022-10-12T08:18:47.876Z,11.29
2022-10-12T08:19:52.192Z,11.33
2022-10-12T08:20:56.576Z,11.36
2022-10-12T08:22:00.819Z,11.38
2022-10-12T08:23:05.161Z,11.40
2022-10-12T08:24:09.452Z,11.42
2022-10-12T08:25:13.780Z,11.44
2022-10-12T08:26:18.151Z,11.46
2022-10-12T08:27:22.508Z,11.50
2022-10-12T08:28:26.845Z,11.54
2022-10-12T08:29:31.054Z,11.56
2022-10-12T08:30:35.396Z,11.58
2022-10-12T08:31:39.619Z,11.61
2022-10-12T08:32:43.974Z,11.64
2022-10-12T08:33:48.208Z,11.66
2022-10-12T08:34:52.637Z,11.69
2022-10-12T08:35:56.991Z,11.71
2022-10-12T08:37:01.285Z,11.72
2022-10-12T08:38:05.566Z,11.72
2022-10-12T08:39:09.871Z,11.74
2022-10-12T08:40:14.202Z,11.77
2022-10-12T08:41:18.406Z,11.81
2022-10-12T08:42:22.751Z,11.83
2022-10-12T08:43:27.067Z,11.86
2022-10-12T08:44:31.219Z,11.90
2022-10-12T08:45:35.684Z,11.94
2022-10-12T08:46:39.974Z,11.98
2022-10-12T08:47:44.291Z,12.01
2022-10-12T08:48:48.622Z,12.05
2022-10-12T08:49:53.050Z,12.09
2022-10-12T08:52:01.432Z,12.18
2022-10-12T08:53:05.779Z,12.23
2022-10-12T08:54:10.159Z,12.27
2022-10-12T08:55:14.434Z,12.30
2022-10-12T08:56:18.739Z,12.34
2022-10-12T08:57:23.041Z,12.38
2022-10-12T08:58:27.448Z,12.41
2022-10-12T08:59:31.737Z,12.44
2022-10-12T09:00:36.124Z,12.47
2022-10-12T09:01:40.319Z,12.48
2022-10-12T09:02:44.613Z,12.50
2022-10-12T09:03:48.961Z,12.52
2022-10-12T09:04:53.170Z,12.55
2022-10-12T09:05:57.452Z,12.59
2022-10-12T09:07:01.690Z,12.62
2022-10-12T09:08:06.148Z,12.66
2022-10-12T09:09:10.434Z,12.70
2022-10-12T09:10:28.899Z,12.74
2022-10-12T09:11:32.176Z,12.79
2022-10-12T09:12:39.734Z,12.80
2022-10-12T09:13:42.872Z,12.82
2022-10-12T09:14:47.119Z,12.84
2022-10-12T09:15:51.451Z,12.88
2022-10-12T09:16:55.799Z,12.92
2022-10-12T09:18:00.204Z,12.95
2022-10-12T09:19:04.588Z,12.96
2022-10-12T09:20:08.851Z,12.97
2022-10-12T09:21:13.224Z,12.99
2022-10-12T09:22:17.478Z,13.01
2022-10-12T09:23:21.905Z,13.04
2022-10-12T09:24:26.222Z,13.07
2022-10-12T09:25:30.532Z,13.10
2022-10-12T09:26:34.830Z,13.12
2022-10-12T09:27:43.011Z,13.14
2022-10-12T09:28:43.475Z,13.16
2022-10-12T09:29:47.726Z,13.18
2022-10-12T09:30:54.848Z,13.19
2022-10-12T09:31:58.178Z,13.20
2022-10-12T09:33:02.410Z,13.22
2022-10-12T09:34:06.705Z,13.22
2022-10-12T09:35:10.970Z,13.24
2022-10-12T09:36:15.240Z,13.25
2022-10-12T09:37:19.621Z,13.28
2022-10-12T09:38:23.826Z,13.30
2022-10-12T09:39:29.228Z,13.33
2022-10-12T09:40:32.476Z,13.36
2022-10-12T09:41:36.679Z,13.39
2022-10-12T09:42:40.960Z,13.41
2022-10-12T09:43:45.235Z,13.44
2022-10-12T09:44:49.494Z,13.46
2022-10-12T09:45:53.765Z,13.47
2022-10-12T09:46:58.067Z,13.49
2022-10-12T09:48:02.319Z,13.52
2022-10-12T09:49:06.586Z,13.54
2022-10-12T09:50:10.835Z,13.57
2022-10-12T09:51:15.197Z,13.59
2022-10-12T09:52:19.460Z,13.61
2022-10-12T09:53:23.799Z,13.63
2022-10-12T09:54:28.051Z,13.66
2022-10-12T09:55:32.410Z,13.67
2022-10-12T09:56:36.674Z,13.69
2022-10-12T09:57:40.935Z,13.72
2022-10-12T09:58:45.227Z,13.74
2022-10-12T09:59:49.484Z,13.76
2022-10-12T10:00:53.773Z,13.77
2022-10-12T10:02:01.126Z,13.80
2022-10-12T10:03:04.460Z,13.83
2022-10-12T10:04:08.737Z,13.85
2022-10-12T10:05:13.034Z,13.87
2022-10-12T10:06:17.388Z,13.88
2022-10-12T10:07:21.630Z,13.90
2022-10-12T10:08:26.066Z,13.92
2022-10-12T10:09:30.368Z,13.93
2022-10-12T10:10:34.586Z,13.95
2022-10-12T10:11:38.860Z,13.96
2022-10-12T10:12:43.139Z,13.96
2022-10-12T10:13:47.415Z,13.98
2022-10-12T10:14:51.655Z,13.99
2022-10-12T10:15:55.960Z,14.00
2022-10-12T10:17:00.235Z,14.01
2022-10-12T10:18:04.518Z,14.01
2022-10-12T10:19:08.885Z,14.02
2022-10-12T10:20:13.227Z,14.04
2022-10-12T10:21:17.491Z,14.05
2022-10-12T10:22:21.746Z,14.05
2022-10-12T10:23:26.055Z,14.06
2022-10-12T10:24:30.383Z,14.07
2022-10-12T10:25:34.611Z,14.07
2022-10-12T10:26:39.006Z,14.08
2022-10-12T10:27:43.243Z,14.09
2022-10-12T10:28:47.550Z,14.10
2022-10-12T10:30:04.692Z,14.11
2022-10-12T10:30:56.090Z,14.13
2022-10-12T10:32:00.403Z,14.14
2022-10-12T10:33:04.686Z,14.15
2022-10-12T10:34:08.923Z,14.17
2022-10-12T10:35:13.286Z,14.18
2022-10-12T10:36:17.612Z,14.19
2022-10-12T10:37:21.847Z,14.21
2022-10-12T10:38:26.100Z,14.23
2022-10-12T10:39:30.467Z,14.25
2022-10-12T10:40:34.709Z,14.26
2022-10-12T10:41:39.047Z,14.28
2022-10-12T10:42:43.360Z,14.29
2022-10-12T10:43:47.614Z,14.29
2022-10-12T10:44:51.901Z,14.30
2022-10-12T10:45:56.327Z,14.32
2022-10-12T10:47:00.677Z,14.33
2022-10-12T10:48:04.897Z,14.34
2022-10-12T10:49:09.186Z,14.36
2022-10-12T10:50:13.520Z,14.38
2022-10-12T10:51:17.815Z,14.40
2022-10-12T10:52:22.059Z,14.42
2022-10-12T10:53:26.365Z,14.43
2022-10-12T10:54:30.704Z,14.45
2022-10-12T10:55:34.967Z,14.46
2022-10-12T10:56:39.297Z,14.47
2022-10-12T10:57:43.677Z,14.48
2022-10-12T10:58:47.928Z,14.50
2022-10-12T10:59:52.286Z,14.51
2022-10-12T11:00:56.560Z,14.53
2022-10-12T11:02:01.004Z,14.54
2022-10-12T11:03:05.192Z,14.55
2022-10-12T11:04:09.423Z,14.55
2022-10-12T11:05:13.998Z,14.56
2022-10-12T11:06:18.055Z,14.56
2022-10-12T11:07:22.337Z,14.56
2022-10-12T11:08:26.803Z,14.57
2022-10-12T11:09:31.012Z,14.58
2022-10-12T11:10:35.411Z,14.58
2022-10-12T11:11:39.723Z,14.58
2022-10-12T11:12:44.136Z,14.58
2022-10-12T11:13:48.415Z,14.55
2022-10-12T11:14:52.657Z,14.53
2022-10-12T11:15:56.997Z,14.53
2022-10-12T11:17:01.266Z,14.52
2022-10-12T11:18:05.651Z,14.48
2022-10-12T11:19:09.903Z,14.50
2022-10-12T11:20:18.743Z,14.47
2022-10-12T11:21:18.417Z,14.44
2022-10-12T11:22:22.883Z,14.40
2022-10-12T11:23:27.154Z,14.39
2022-10-12T11:24:31.390Z,14.40
2022-10-12T11:25:35.677Z,14.39
2022-10-12T11:26:40.027Z,14.34
2022-10-12T11:27:44.367Z,14.34
2022-10-12T11:28:48.740Z,14.35
2022-10-12T11:30:02.916Z,14.28
2022-10-12T11:30:57.206Z,14.32
2022-10-12T11:32:01.580Z,14.30
2022-10-12T11:33:05.788Z,14.31
2022-10-12T11:34:13.415Z,14.33
2022-10-12T11:35:14.327Z,14.34
2022-10-12T11:36:18.634Z,14.35
2022-10-12T11:37:22.938Z,14.30
2022-10-12T11:38:27.155Z,14.31
2022-10-12T11:39:31.555Z,14.29
2022-10-12T11:41:02.571Z,14.30
2022-10-12T11:41:52.526Z,14.27
2022-10-12T11:42:46.505Z,14.26
2022-10-12T11:43:50.901Z,14.25
2022-10-12T11:44:55.100Z,14.22
2022-10-12T11:45:59.433Z,14.22
2022-10-12T11:47:03.732Z,14.23
2022-10-12T11:48:08.084Z,14.19
2022-10-12T11:49:12.362Z,14.15
2022-10-12T11:50:16.609Z,14.15
2022-10-12T11:51:21.029Z,14.16
2022-10-12T11:52:28.958Z,14.24
2022-10-12T11:53:29.588Z,14.00
2022-10-12T11:54:33.850Z,14.01
2022-10-12T11:55:38.207Z,14.05
2022-10-12T11:56:42.625Z,14.02
2022-10-12T11:57:46.925Z,14.03
2022-10-12T11:59:06.770Z,14.01
2022-10-12T11:59:55.598Z,14.00
2022-10-12T12:00:59.830Z,13.99
2022-10-12T12:02:04.189Z,13.96
2022-10-12T12:03:08.581Z,13.99
2022-10-12T12:04:40.058Z,14.03
2022-10-12T12:05:17.358Z,14.01
2022-10-12T12:06:21.341Z,14.04
2022-10-12T12:07:25.651Z,14.05
2022-10-12T12:08:29.954Z,14.06
2022-10-12T12:09:34.258Z,13.99
2022-10-12T12:10:38.556Z,13.97
2022-10-12T12:11:42.820Z,13.95
2022-10-12T12:12:47.231Z,13.99
2022-10-12T12:13:51.413Z,14.01
2022-10-12T12:14:55.744Z,13.92
2022-10-12T12:16:00.164Z,13.93
2022-10-12T12:17:04.449Z,13.87
2022-10-12T12:18:08.730Z,13.87
2022-10-12T12:19:13.065Z,13.88
2022-10-12T12:20:17.335Z,13.84
2022-10-12T12:21:21.689Z,13.84
2022-10-12T12:22:25.940Z,13.72
2022-10-12T12:23:30.229Z,13.64
2022-10-12T12:24:34.535Z,13.70
2022-10-12T12:25:38.846Z,13.76
2022-10-12T12:26:43.187Z,13.80
2022-10-12T12:27:47.490Z,13.81
2022-10-12T12:28:54.863Z,13.77
2022-10-12T12:29:58.152Z,13.86
2022-10-12T12:31:02.463Z,14.00
2022-10-12T12:32:06.836Z,14.27
2022-10-12T12:33:11.221Z,14.45
2022-10-12T12:34:15.564Z,14.74
2022-10-12T12:35:19.845Z,14.97
2022-10-12T12:36:24.129Z,15.17
2022-10-12T12:37:28.479Z,15.37
2022-10-12T12:38:32.800Z,15.43
2022-10-12T12:39:37.269Z,15.33
2022-10-12T12:40:41.680Z,15.52
2022-10-12T12:41:51.989Z,15.71
2022-10-12T12:42:50.210Z,15.24
2022-10-12T12:43:54.668Z,15.29
2022-10-12T12:44:59.066Z,15.18
2022-10-12T12:46:03.328Z,15.31
2022-10-12T12:47:32.648Z,15.58
2022-10-12T12:48:12.038Z,15.76
2022-10-12T12:49:16.323Z,15.68
2022-10-12T12:50:20.659Z,15.87
2022-10-12T12:51:25.006Z,15.29
2022-10-12T12:52:29.318Z,15.41
2022-10-12T12:53:33.628Z,15.51
2022-10-12T12:54:37.978Z,15.68
2022-10-12T12:55:42.386Z,15.51
2022-10-12T12:56:46.791Z,15.80
2022-10-12T12:57:51.060Z,15.78
2022-10-12T12:58:55.386Z,15.39
2022-10-12T12:59:59.826Z,15.62
2022-10-12T13:01:04.093Z,15.64
2022-10-12T13:02:08.505Z,15.55
2022-10-12T13:03:12.795Z,15.57
2022-10-12T13:04:17.202Z,14.59
2022-10-12T13:05:21.351Z,14.39
2022-10-12T13:06:25.703Z,13.96
2022-10-12T13:07:30.194Z,13.71
2022-10-12T13:08:34.320Z,13.29
2022-10-12T13:09:38.597Z,13.08
2022-10-12T13:10:42.890Z,12.78
2022-10-12T13:11:47.237Z,12.68
2022-10-12T13:12:51.620Z,12.80
2022-10-12T13:13:55.843Z,12.80
2022-10-12T13:15:00.242Z,12.86
2022-10-12T13:16:04.465Z,13.03
2022-10-12T13:17:32.212Z,13.11
2022-10-12T13:18:28.348Z,13.06
2022-10-12T13:19:21.923Z,12.95
2022-10-12T13:20:21.689Z,13.03
2022-10-12T13:21:25.994Z,13.13
2022-10-12T13:22:30.606Z,13.00
2022-10-12T13:23:34.670Z,12.95
2022-10-12T13:24:38.913Z,13.13
2022-10-12T13:25:43.338Z,12.99
2022-10-12T13:26:47.707Z,12.82
2022-10-12T13:27:52.027Z,12.60
2022-10-12T13:28:56.388Z,12.53
2022-10-12T13:30:00.758Z,12.66
2022-10-12T13:31:05.023Z,12.72
2022-10-12T13:32:09.356Z,12.84
2022-10-12T13:33:13.686Z,12.47
2022-10-12T13:34:18.074Z,12.46
2022-10-12T13:35:22.301Z,12.63
2022-10-12T13:36:26.819Z,12.56
2022-10-12T13:37:31.519Z,12.47
2022-10-12T13:38:35.340Z,12.48
2022-10-12T13:39:39.743Z,12.40
2022-10-12T13:40:44.006Z,12.47
2022-10-12T13:41:48.407Z,12.54
2022-10-12T13:42:52.747Z,12.51
2022-10-12T13:43:56.977Z,12.51
2022-10-12T13:45:01.328Z,12.48
2022-10-12T13:46:05.699Z,12.45
2022-10-12T13:47:10.476Z,12.40
2022-10-12T13:48:14.300Z,12.42
2022-10-12T13:49:18.698Z,12.49
2022-10-12T13:50:23.613Z,12.59
2022-10-12T13:51:27.743Z,12.54
2022-10-12T13:52:32.802Z,12.49
2022-10-12T13:53:36.340Z,12.57
2022-10-12T13:54:40.778Z,12.60
2022-10-12T13:55:45.048Z,12.70
2022-10-12T13:56:49.476Z,12.79
2022-10-12T13:57:53.720Z,12.81
2022-10-12T13:58:57.962Z,12.71
2022-10-12T14:00:02.270Z,12.69
2022-10-12T14:01:06.689Z,12.74
2022-10-12T14:02:10.873Z,12.81
2022-10-12T14:03:15.071Z,12.88